createdAt,value
2022-08-20T00:01:02.065Z,841.74
2022-08-20T00:01:59.047Z,841.90
2022-08-20T00:02:59.030Z,841.86
2022-08-20T00:03:59.014Z,841.86
2022-08-20T00:04:58.982Z,841.86
2022-08-20T00:05:58.972Z,841.85
2022-08-20T00:06:58.963Z,841.72
2022-08-20T00:07:58.958Z,841.71
2022-08-20T00:08:58.982Z,841.84
2022-08-20T00:09:58.922Z,841.85
2022-08-20T00:10:58.954Z,841.76
2022-08-20T00:11:58.946Z,841.58
2022-08-20T00:12:58.985Z,841.60
2022-08-20T00:13:58.974Z,841.67
2022-08-20T00:14:59.122Z,841.65
2022-08-20T00:15:58.942Z,841.69
2022-08-20T00:17:00.065Z,841.63
2022-08-20T00:17:58.974Z,841.58
2022-08-20T00:18:59.587Z,841.63
2022-08-20T00:19:59.055Z,841.54
2022-08-20T00:20:58.966Z,841.65
2022-08-20T00:21:59.028Z,841.56
2022-08-20T00:22:59.086Z,841.44
2022-08-20T00:23:59.026Z,841.47
2022-08-20T00:24:58.806Z,841.58
2022-08-20T00:25:58.772Z,841.37
2022-08-20T00:26:58.738Z,841.43
2022-08-20T00:27:58.719Z,841.29
2022-08-20T00:28:58.726Z,841.29
2022-08-20T00:29:58.726Z,841.28
2022-08-20T00:30:58.698Z,841.24
2022-08-20T00:31:58.686Z,841.19
2022-08-20T00:32:58.668Z,841.12
2022-08-20T00:33:58.655Z,841.11
2022-08-20T00:34:58.674Z,841.29
2022-08-20T00:35:58.646Z,841.07
2022-08-20T00:36:58.630Z,841.13
2022-08-20T00:38:00.694Z,841.23
2022-08-20T00:38:58.612Z,841.24
2022-08-20T00:39:58.659Z,841.39
2022-08-20T00:40:58.578Z,841.30
2022-08-20T00:41:58.590Z,841.20
2022-08-20T00:42:58.558Z,841.28
2022-08-20T00:43:58.538Z,841.23
2022-08-20T00:44:58.578Z,841.33
2022-08-20T00:45:58.518Z,841.39
2022-08-20T00:46:58.522Z,841.35
2022-08-20T00:47:58.575Z,841.30
2022-08-20T00:48:58.491Z,841.21
2022-08-20T00:49:58.475Z,841.30
2022-08-20T00:50:58.491Z,841.27
2022-08-20T00:51:58.471Z,841.25
2022-08-20T00:52:58.466Z,841.18
2022-08-20T00:53:58.431Z,841.21
2022-08-20T00:54:58.462Z,841.22
2022-08-20T00:55:58.410Z,841.21
2022-08-20T00:56:58.404Z,841.38
2022-08-20T00:58:01.770Z,841.32
2022-08-20T00:58:58.382Z,841.33
2022-08-20T00:59:58.366Z,841.31
2022-08-20T01:00:58.443Z,841.36
2022-08-20T01:01:58.456Z,841.52
2022-08-20T01:02:58.342Z,841.40
2022-08-20T01:03:58.346Z,841.52
2022-08-20T01:04:58.358Z,841.47
2022-08-20T01:05:58.376Z,841.29
2022-08-20T01:06:58.411Z,841.35
2022-08-20T01:07:58.505Z,841.37
2022-08-20T01:08:58.379Z,841.41
2022-08-20T01:09:59.436Z,841.38
2022-08-20T01:10:58.420Z,841.46
2022-08-20T01:11:58.435Z,841.29
2022-08-20T01:12:59.467Z,841.22
2022-08-20T01:13:58.395Z,841.25
2022-08-20T01:14:58.420Z,841.49
2022-08-20T01:15:58.407Z,841.38
2022-08-20T01:16:58.461Z,841.29
2022-08-20T01:17:58.459Z,841.54
2022-08-20T01:18:58.459Z,841.47
2022-08-20T01:19:58.139Z,841.44
2022-08-20T01:20:58.167Z,841.33
2022-08-20T01:21:58.163Z,841.38
2022-08-20T01:22:58.139Z,841.32
2022-08-20T01:23:58.427Z,841.71
2022-08-20T01:24:58.486Z,841.49
2022-08-20T01:25:58.519Z,841.55
2022-08-20T01:26:58.531Z,841.56
2022-08-20T01:27:58.894Z,841.47
2022-08-20T01:28:58.547Z,841.50
2022-08-20T01:29:58.023Z,841.61
2022-08-20T01:30:58.044Z,841.39
2022-08-20T01:31:58.013Z,841.40
2022-08-20T01:32:58.026Z,841.53
2022-08-20T01:33:57.984Z,841.44
2022-08-20T01:34:58.039Z,841.47
2022-08-20T01:35:57.966Z,841.49
2022-08-20T01:36:57.951Z,841.53
2022-08-20T01:37:58.031Z,841.44
2022-08-20T01:38:57.958Z,841.36
2022-08-20T01:39:57.944Z,841.44
2022-08-20T01:40:57.911Z,841.35
2022-08-20T01:41:57.904Z,841.28
2022-08-20T01:42:59.276Z,841.23
2022-08-20T01:43:58.317Z,841.18
2022-08-20T01:44:57.871Z,841.13
2022-08-20T01:45:57.863Z,840.97
2022-08-20T01:46:58.008Z,840.94
2022-08-20T01:47:58.087Z,840.81
2022-08-20T01:48:57.823Z,840.75
2022-08-20T01:49:57.804Z,840.65
2022-08-20T01:50:57.809Z,840.64
2022-08-20T01:51:57.796Z,840.28
2022-08-20T01:52:57.775Z,840.20
2022-08-20T01:53:57.772Z,840.28
2022-08-20T01:54:57.761Z,840.27
2022-08-20T01:55:57.748Z,840.25
2022-08-20T01:56:57.760Z,840.32
2022-08-20T01:57:57.858Z,840.30
2022-08-20T01:58:58.935Z,840.27
2022-08-20T01:59:57.683Z,840.22
2022-08-20T02:00:57.713Z,840.25
2022-08-20T02:01:57.903Z,840.29
2022-08-20T02:02:57.708Z,840.36
2022-08-20T02:03:57.647Z,840.26
2022-08-20T02:04:57.647Z,840.13
2022-08-20T02:05:57.617Z,840.29
2022-08-20T02:06:58.050Z,840.18
2022-08-20T02:07:57.620Z,840.16
2022-08-20T02:08:57.622Z,840.09
2022-08-20T02:09:57.588Z,840.23
2022-08-20T02:10:57.588Z,840.23
2022-08-20T02:11:57.673Z,840.23
2022-08-20T02:13:04.641Z,840.19
2022-08-20T02:13:57.549Z,840.09
2022-08-20T02:14:57.546Z,840.11
2022-08-20T02:15:57.547Z,840.02
2022-08-20T02:16:57.512Z,840.05
2022-08-20T02:17:57.490Z,839.94
2022-08-20T02:18:57.660Z,840.03
2022-08-20T02:19:57.572Z,840.17
2022-08-20T02:20:57.447Z,840.03
2022-08-20T02:21:57.460Z,840.16
2022-08-20T02:22:57.428Z,840.08
2022-08-20T02:23:57.432Z,840.09
2022-08-20T02:24:57.420Z,840.16
2022-08-20T02:25:57.404Z,840.17
2022-08-20T02:26:57.382Z,840.06
2022-08-20T02:27:57.598Z,840.04
2022-08-20T02:28:57.372Z,840.01
2022-08-20T02:29:57.382Z,839.87
2022-08-20T02:30:57.344Z,839.90
2022-08-20T02:32:24.422Z,840.00
2022-08-20T02:32:58.312Z,839.81
2022-08-20T02:34:21.859Z,839.83
2022-08-20T02:34:58.316Z,839.86
2022-08-20T02:35:57.288Z,839.85
2022-08-20T02:36:57.272Z,839.99
2022-08-20T02:37:57.563Z,839.97
2022-08-20T02:38:57.281Z,839.99
2022-08-20T02:39:57.277Z,839.89
2022-08-20T02:40:57.232Z,839.94
2022-08-20T02:41:57.318Z,839.93
2022-08-20T02:42:57.214Z,839.93
2022-08-20T02:43:57.206Z,839.80
2022-08-20T02:44:57.204Z,839.64
2022-08-20T02:45:57.177Z,839.46
2022-08-20T02:46:57.176Z,839.62
2022-08-20T02:47:57.462Z,839.65
2022-08-20T02:48:57.149Z,839.62
2022-08-20T02:49:57.136Z,839.66
2022-08-20T02:50:57.112Z,839.71
2022-08-20T02:51:57.137Z,839.69
2022-08-20T02:52:57.089Z,839.57
2022-08-20T02:53:57.108Z,839.64
2022-08-20T02:54:57.077Z,839.68
2022-08-20T02:55:57.066Z,839.70
2022-08-20T02:56:57.045Z,839.67
2022-08-20T02:57:58.452Z,839.70
2022-08-20T02:58:57.017Z,839.50
2022-08-20T02:59:57.037Z,839.63
2022-08-20T03:00:57.066Z,839.46
2022-08-20T03:02:00.121Z,839.60
2022-08-20T03:02:56.976Z,839.54
2022-08-20T03:03:56.981Z,839.80
2022-08-20T03:04:56.969Z,840.00
2022-08-20T03:05:56.957Z,840.03
2022-08-20T03:06:56.942Z,840.00
2022-08-20T03:07:57.210Z,840.01
2022-08-20T03:08:56.909Z,840.05
2022-08-20T03:09:56.931Z,839.94
2022-08-20T03:10:56.955Z,839.92
2022-08-20T03:11:56.929Z,839.96
2022-08-20T03:12:57.034Z,839.93
2022-08-20T03:13:57.079Z,839.92
2022-08-20T03:14:57.077Z,839.98
2022-08-20T03:15:59.019Z,840.00
2022-08-20T03:16:56.998Z,839.90
2022-08-20T03:17:57.048Z,840.07
2022-08-20T03:18:56.791Z,839.80
2022-08-20T03:19:56.829Z,839.93
2022-08-20T03:20:56.785Z,839.82
2022-08-20T03:21:57.289Z,839.89
2022-08-20T03:22:56.749Z,839.90
2022-08-20T03:23:56.749Z,839.89
2022-08-20T03:24:56.730Z,840.12
2022-08-20T03:25:56.749Z,840.28
2022-08-20T03:26:56.710Z,840.28
2022-08-20T03:27:56.958Z,840.13
2022-08-20T03:28:56.690Z,840.40
2022-08-20T03:29:56.673Z,840.16
2022-08-20T03:30:56.681Z,840.13
2022-08-20T03:31:56.661Z,840.16
2022-08-20T03:32:56.641Z,839.91
2022-08-20T03:33:56.633Z,840.06
2022-08-20T03:34:56.625Z,839.92
2022-08-20T03:35:56.644Z,839.95
2022-08-20T03:36:56.593Z,840.00
2022-08-20T03:37:56.670Z,839.95
2022-08-20T03:38:56.574Z,839.87
2022-08-20T03:39:56.595Z,839.81
2022-08-20T03:40:56.545Z,839.66
2022-08-20T03:41:56.565Z,839.64
2022-08-20T03:42:56.525Z,839.72
2022-08-20T03:43:56.531Z,839.75
2022-08-20T03:44:59.022Z,839.74
2022-08-20T03:45:56.506Z,839.71
2022-08-20T03:46:56.496Z,839.66
2022-08-20T03:47:56.625Z,839.75
2022-08-20T03:48:59.968Z,839.71
2022-08-20T03:49:56.486Z,839.49
2022-08-20T03:50:56.529Z,839.51
2022-08-20T03:51:57.914Z,839.62
2022-08-20T03:52:56.540Z,839.75
2022-08-20T03:53:56.619Z,839.54
2022-08-20T03:54:56.555Z,839.77
2022-08-20T03:56:01.769Z,839.75
2022-08-20T03:56:57.379Z,839.92
2022-08-20T03:57:56.716Z,839.71
2022-08-20T03:58:56.491Z,839.69
2022-08-20T03:59:58.638Z,839.66
2022-08-20T04:00:56.623Z,839.73
2022-08-20T04:01:56.619Z,839.73
2022-08-20T04:02:56.367Z,839.81
2022-08-20T04:03:56.320Z,839.74
2022-08-20T04:04:56.590Z,839.73
2022-08-20T04:05:56.582Z,839.62
2022-08-20T04:06:56.278Z,839.72
2022-08-20T04:07:56.448Z,839.57
2022-08-20T04:08:57.232Z,839.73
2022-08-20T04:09:56.231Z,839.81
2022-08-20T04:10:56.218Z,839.79
2022-08-20T04:11:56.233Z,839.91
2022-08-20T04:12:56.191Z,839.92
2022-08-20T04:13:56.190Z,839.78
2022-08-20T04:14:56.170Z,839.73
2022-08-20T04:15:56.162Z,839.72
2022-08-20T04:16:56.202Z,839.76
2022-08-20T04:17:56.270Z,839.72
2022-08-20T04:19:02.507Z,839.56
2022-08-20T04:19:57.110Z,839.44
2022-08-20T04:20:56.133Z,839.64
2022-08-20T04:21:56.114Z,839.66
2022-08-20T04:22:59.421Z,839.57
2022-08-20T04:23:56.079Z,839.53
2022-08-20T04:24:56.062Z,839.57
2022-08-20T04:25:56.572Z,839.46
2022-08-20T04:26:56.167Z,839.55
2022-08-20T04:27:56.174Z,839.72
2022-08-20T04:28:56.015Z,839.69
2022-08-20T04:29:56.003Z,839.49
2022-08-20T04:30:56.296Z,839.57
2022-08-20T04:31:56.066Z,839.64
2022-08-20T04:32:55.967Z,839.62
2022-08-20T04:33:55.962Z,839.49
2022-08-20T04:34:55.963Z,839.61
2022-08-20T04:35:55.936Z,839.56
2022-08-20T04:36:55.926Z,839.65
2022-08-20T04:37:56.158Z,839.64
2022-08-20T04:38:56.021Z,839.57
2022-08-20T04:39:56.037Z,839.61
2022-08-20T04:40:55.975Z,839.67
2022-08-20T04:41:56.031Z,839.56
2022-08-20T04:42:55.975Z,839.61
2022-08-20T04:43:56.015Z,839.43
2022-08-20T04:44:55.921Z,839.56
2022-08-20T04:45:56.038Z,839.64
2022-08-20T04:46:56.014Z,839.62
2022-08-20T04:47:56.148Z,839.74
2022-08-20T04:48:56.026Z,839.79
2022-08-20T04:49:57.530Z,839.86
2022-08-20T04:50:55.769Z,839.61
2022-08-20T04:51:56.037Z,839.72
2022-08-20T04:52:55.875Z,839.78
2022-08-20T04:53:55.755Z,839.77
2022-08-20T04:54:55.727Z,839.86
2022-08-20T04:55:55.719Z,839.71
2022-08-20T04:56:55.699Z,839.75
2022-08-20T04:57:55.781Z,839.70
2022-08-20T04:58:55.659Z,839.61
2022-08-20T04:59:59.400Z,839.54
2022-08-20T05:00:55.680Z,839.63
2022-08-20T05:01:56.659Z,839.47
2022-08-20T05:02:55.631Z,839.65
2022-08-20T05:03:55.645Z,839.60
2022-08-20T05:04:55.599Z,839.48
2022-08-20T05:05:55.602Z,839.59
2022-08-20T05:06:55.597Z,839.55
2022-08-20T05:07:55.723Z,839.54
2022-08-20T05:08:55.561Z,839.61
2022-08-20T05:09:55.568Z,839.66
2022-08-20T05:10:58.117Z,839.57
2022-08-20T05:11:56.548Z,839.69
2022-08-20T05:12:57.130Z,839.69
2022-08-20T05:13:55.521Z,839.65
2022-08-20T05:14:55.489Z,839.70
2022-08-20T05:15:55.489Z,839.57
2022-08-20T05:16:55.485Z,839.55
2022-08-20T05:17:55.628Z,839.72
2022-08-20T05:18:55.740Z,839.67
2022-08-20T05:19:55.442Z,839.74
2022-08-20T05:20:55.433Z,839.46
2022-08-20T05:21:55.442Z,839.60
2022-08-20T05:22:55.404Z,839.70
2022-08-20T05:23:55.409Z,839.66
2022-08-20T05:24:55.373Z,839.72
2022-08-20T05:25:55.453Z,839.71
2022-08-20T05:26:55.389Z,839.70
2022-08-20T05:27:55.365Z,839.67
2022-08-20T05:28:58.410Z,839.68
2022-08-20T05:29:55.324Z,839.84
2022-08-20T05:30:55.325Z,839.75
2022-08-20T05:31:55.304Z,839.64
2022-08-20T05:32:55.301Z,839.49
2022-08-20T05:33:55.287Z,839.47
2022-08-20T05:34:55.266Z,839.66
2022-08-20T05:35:55.275Z,839.62
2022-08-20T05:36:55.285Z,839.72
2022-08-20T05:37:55.463Z,839.58
2022-08-20T05:38:55.233Z,839.57
2022-08-20T05:39:55.281Z,839.66
2022-08-20T05:40:55.194Z,839.73
2022-08-20T05:41:55.198Z,839.67
2022-08-20T05:42:55.193Z,839.56
2022-08-20T05:43:55.193Z,839.79
2022-08-20T05:44:55.153Z,839.63
2022-08-20T05:45:56.757Z,839.43
2022-08-20T05:46:55.149Z,839.52
2022-08-20T05:47:56.595Z,839.55
2022-08-20T05:48:55.128Z,839.49
2022-08-20T05:49:55.118Z,839.37
2022-08-20T05:50:55.078Z,839.57
2022-08-20T05:51:55.086Z,839.60
2022-08-20T05:52:55.123Z,839.45
2022-08-20T05:53:55.058Z,839.55
2022-08-20T05:54:55.069Z,839.62
2022-08-20T05:55:55.039Z,839.54
2022-08-20T05:56:55.015Z,839.59
2022-08-20T05:57:55.072Z,839.45
2022-08-20T05:58:55.001Z,839.46
2022-08-20T05:59:55.019Z,839.55
2022-08-20T06:00:55.031Z,839.61
2022-08-20T06:01:54.968Z,839.46
2022-08-20T06:02:54.957Z,839.47
2022-08-20T06:03:54.959Z,839.52
2022-08-20T06:04:56.151Z,839.58
2022-08-20T06:05:54.960Z,839.40
2022-08-20T06:06:54.914Z,839.34
2022-08-20T06:07:55.035Z,839.39
2022-08-20T06:08:55.892Z,839.34
2022-08-20T06:09:54.887Z,839.42
2022-08-20T06:10:54.888Z,839.28
2022-08-20T06:11:54.857Z,839.32
2022-08-20T06:12:54.842Z,839.19
2022-08-20T06:13:54.864Z,839.32
2022-08-20T06:14:54.811Z,839.31
2022-08-20T06:15:54.811Z,839.14
2022-08-20T06:16:57.930Z,839.18
2022-08-20T06:17:58.198Z,839.39
2022-08-20T06:18:54.812Z,839.33
2022-08-20T06:19:54.765Z,839.23
2022-08-20T06:20:54.746Z,839.07
2022-08-20T06:21:54.783Z,839.26
2022-08-20T06:22:54.721Z,839.31
2022-08-20T06:23:58.023Z,839.47
2022-08-20T06:24:55.700Z,839.42
2022-08-20T06:25:54.712Z,839.41
2022-08-20T06:26:54.706Z,839.48
2022-08-20T06:27:54.679Z,839.40
2022-08-20T06:28:54.664Z,839.34
2022-08-20T06:29:54.644Z,839.14
2022-08-20T06:30:54.649Z,839.34
2022-08-20T06:31:54.644Z,839.25
2022-08-20T06:32:54.627Z,839.25
2022-08-20T06:33:54.604Z,839.12
2022-08-20T06:34:54.618Z,839.15
2022-08-20T06:35:54.575Z,839.10
2022-08-20T06:36:54.596Z,839.07
2022-08-20T06:37:54.629Z,839.19
2022-08-20T06:38:54.578Z,839.27
2022-08-20T06:39:54.554Z,839.36
2022-08-20T06:40:54.524Z,839.14
2022-08-20T06:41:54.532Z,839.31
2022-08-20T06:42:54.509Z,839.29
2022-08-20T06:43:54.624Z,839.34
2022-08-20T06:44:54.488Z,839.61
2022-08-20T06:45:54.510Z,839.55
2022-08-20T06:46:54.476Z,839.61
2022-08-20T06:47:54.462Z,839.35
2022-08-20T06:48:54.460Z,839.50
2022-08-20T06:49:54.426Z,839.45
2022-08-20T06:50:54.438Z,839.50
2022-08-20T06:51:54.397Z,839.44
2022-08-20T06:52:54.409Z,839.57
2022-08-20T06:53:54.377Z,839.34
2022-08-20T06:54:54.400Z,839.37
2022-08-20T06:55:54.356Z,839.51
2022-08-20T06:56:54.349Z,839.48
2022-08-20T06:57:54.336Z,839.44
2022-08-20T06:58:54.329Z,839.40
2022-08-20T06:59:54.482Z,839.51
2022-08-20T07:00:54.348Z,839.64
2022-08-20T07:01:54.289Z,839.92
2022-08-20T07:02:54.281Z,839.89
2022-08-20T07:03:56.154Z,840.02
2022-08-20T07:04:54.280Z,839.90
2022-08-20T07:05:54.257Z,839.64
2022-08-20T07:06:54.241Z,839.59
2022-08-20T07:07:54.213Z,839.86
2022-08-20T07:08:54.221Z,839.68
2022-08-20T07:09:54.201Z,839.69
2022-08-20T07:10:54.212Z,839.69
2022-08-20T07:11:54.216Z,839.75
2022-08-20T07:12:54.190Z,839.55
2022-08-20T07:13:54.161Z,839.54
2022-08-20T07:14:54.154Z,839.49
2022-08-20T07:15:54.248Z,839.67
2022-08-20T07:16:54.172Z,839.55
2022-08-20T07:17:58.764Z,839.54
2022-08-20T07:18:55.112Z,839.64
2022-08-20T07:19:54.461Z,839.87
2022-08-20T07:20:54.085Z,839.72
2022-08-20T07:21:54.064Z,839.78
2022-08-20T07:22:54.073Z,839.94
2022-08-20T07:23:54.053Z,839.79
2022-08-20T07:24:54.065Z,839.89
2022-08-20T07:25:54.025Z,839.79
2022-08-20T07:26:54.069Z,839.86
2022-08-20T07:27:54.029Z,839.78
2022-08-20T07:28:53.999Z,839.62
2022-08-20T07:29:54.017Z,839.67
2022-08-20T07:30:55.821Z,839.50
2022-08-20T07:31:53.953Z,839.49
2022-08-20T07:32:53.962Z,839.55
2022-08-20T07:33:53.927Z,839.46
2022-08-20T07:34:54.134Z,839.46
2022-08-20T07:35:53.919Z,839.48
2022-08-20T07:36:53.904Z,839.59
2022-08-20T07:37:53.885Z,839.64
2022-08-20T07:38:53.898Z,839.61
2022-08-20T07:39:53.921Z,839.70
2022-08-20T07:40:53.880Z,839.65
2022-08-20T07:41:56.779Z,839.62
2022-08-20T07:42:53.885Z,839.70
2022-08-20T07:43:53.861Z,839.97
2022-08-20T07:44:53.909Z,839.94
2022-08-20T07:45:53.918Z,839.96
2022-08-20T07:46:53.949Z,840.07
2022-08-20T07:47:54.008Z,840.17
2022-08-20T07:48:54.017Z,840.17
2022-08-20T07:49:54.029Z,840.27
2022-08-20T07:50:53.977Z,840.39
2022-08-20T07:51:53.734Z,840.25
2022-08-20T07:52:53.729Z,840.11
2022-08-20T07:53:53.769Z,840.16
2022-08-20T07:54:53.709Z,840.11
2022-08-20T07:55:59.174Z,840.16
2022-08-20T07:56:54.709Z,840.15
2022-08-20T07:57:53.661Z,840.25
2022-08-20T07:58:53.675Z,840.34
2022-08-20T07:59:54.403Z,840.33
2022-08-20T08:00:53.707Z,840.39
2022-08-20T08:01:53.641Z,840.15
2022-08-20T08:02:53.622Z,840.08
2022-08-20T08:03:53.606Z,839.97
2022-08-20T08:04:53.602Z,839.92
2022-08-20T08:05:53.574Z,840.03
2022-08-20T08:06:53.586Z,840.11
2022-08-20T08:07:53.562Z,840.08
2022-08-20T08:08:53.542Z,840.12
2022-08-20T08:09:53.529Z,840.10
2022-08-20T08:10:53.514Z,839.86
2022-08-20T08:11:53.514Z,839.97
2022-08-20T08:12:53.519Z,840.08
2022-08-20T08:13:53.489Z,839.96
2022-08-20T08:14:53.486Z,839.79
2022-08-20T08:15:53.463Z,839.94
2022-08-20T08:16:53.746Z,839.84
2022-08-20T08:17:53.443Z,839.89
2022-08-20T08:18:53.451Z,840.08
2022-08-20T08:19:53.413Z,840.16
2022-08-20T08:20:53.427Z,840.36
2022-08-20T08:21:53.406Z,840.46
2022-08-20T08:22:53.436Z,840.57
2022-08-20T08:23:53.399Z,840.90
2022-08-20T08:24:57.157Z,840.76
2022-08-20T08:25:53.346Z,840.92
2022-08-20T08:26:53.366Z,840.92
2022-08-20T08:27:53.326Z,840.85
2022-08-20T08:28:53.330Z,841.01
2022-08-20T08:29:53.308Z,840.92
2022-08-20T08:30:53.311Z,840.97
2022-08-20T08:31:53.284Z,840.86
2022-08-20T08:32:53.290Z,840.84
2022-08-20T08:33:53.263Z,840.73
2022-08-20T08:34:53.246Z,840.56
2022-08-20T08:35:53.239Z,840.49
2022-08-20T08:36:53.252Z,840.68
2022-08-20T08:37:53.231Z,840.74
2022-08-20T08:38:53.252Z,840.64
2022-08-20T08:39:53.213Z,840.61
2022-08-20T08:40:59.165Z,840.55
2022-08-20T08:41:54.169Z,840.63
2022-08-20T08:42:53.169Z,840.49
2022-08-20T08:43:53.290Z,840.55
2022-08-20T08:44:53.164Z,840.68
2022-08-20T08:45:53.121Z,840.62
2022-08-20T08:46:53.129Z,840.52
2022-08-20T08:47:53.094Z,840.33
2022-08-20T08:48:53.109Z,840.42
2022-08-20T08:49:53.068Z,840.39
2022-08-20T08:50:54.644Z,840.40
2022-08-20T08:51:53.063Z,840.55
2022-08-20T08:52:53.106Z,840.50
2022-08-20T08:53:53.061Z,840.58
2022-08-20T08:54:53.053Z,840.57
2022-08-20T08:55:53.036Z,840.70
2022-08-20T08:56:53.005Z,840.72
2022-08-20T08:57:53.007Z,840.66
2022-08-20T08:58:53.037Z,840.72
2022-08-20T09:00:03.975Z,840.91
2022-08-20T09:00:56.354Z,840.76
2022-08-20T09:01:56.555Z,840.77
2022-08-20T09:02:53.183Z,841.01
2022-08-20T09:03:52.941Z,840.98
2022-08-20T09:04:52.936Z,840.84
2022-08-20T09:05:52.896Z,840.90
2022-08-20T09:06:52.896Z,840.87
2022-08-20T09:07:53.130Z,840.84
2022-08-20T09:08:52.904Z,840.83
2022-08-20T09:09:52.858Z,840.95
2022-08-20T09:10:52.874Z,841.02
2022-08-20T09:11:52.829Z,841.03
2022-08-20T09:13:00.004Z,840.87
2022-08-20T09:13:52.794Z,840.93
2022-08-20T09:14:52.802Z,841.00
2022-08-20T09:15:52.775Z,841.03
2022-08-20T09:16:53.574Z,841.04
2022-08-20T09:17:52.797Z,840.92
2022-08-20T09:18:52.755Z,840.92
2022-08-20T09:19:52.722Z,841.03
2022-08-20T09:20:52.734Z,841.14
2022-08-20T09:21:52.715Z,841.31
2022-08-20T09:22:52.716Z,841.21
2022-08-20T09:23:52.687Z,841.20
2022-08-20T09:24:52.675Z,841.39
2022-08-20T09:25:52.656Z,841.43
2022-08-20T09:26:52.688Z,841.25
2022-08-20T09:27:52.661Z,841.29
2022-08-20T09:28:52.627Z,841.20
2022-08-20T09:29:52.607Z,841.37
2022-08-20T09:30:52.608Z,841.28
2022-08-20T09:31:52.614Z,841.35
2022-08-20T09:32:52.738Z,841.52
2022-08-20T09:33:52.567Z,841.59
2022-08-20T09:34:52.687Z,841.56
2022-08-20T09:35:52.539Z,841.65
2022-08-20T09:36:52.540Z,841.63
2022-08-20T09:37:52.579Z,841.67
2022-08-20T09:38:52.531Z,841.73
2022-08-20T09:39:52.578Z,841.44
2022-08-20T09:40:52.499Z,841.50
2022-08-20T09:41:52.490Z,841.49
2022-08-20T09:42:52.486Z,841.57
2022-08-20T09:43:52.491Z,841.59
2022-08-20T09:44:52.459Z,841.87
2022-08-20T09:45:52.431Z,842.05
2022-08-20T09:46:52.443Z,842.20
2022-08-20T09:47:56.922Z,842.43
2022-08-20T09:48:53.692Z,842.26
2022-08-20T09:49:52.392Z,842.35
2022-08-20T09:50:52.391Z,842.29
2022-08-20T09:51:52.363Z,842.08
2022-08-20T09:52:52.772Z,842.28
2022-08-20T09:53:52.370Z,842.51
2022-08-20T09:54:52.343Z,842.14
2022-08-20T09:55:52.323Z,842.15
2022-08-20T09:56:52.323Z,841.84
2022-08-20T09:57:52.323Z,841.89
2022-08-20T09:58:52.339Z,841.87
2022-08-20T09:59:52.303Z,841.68
2022-08-20T10:00:52.284Z,841.67
2022-08-20T10:01:52.296Z,841.65
2022-08-20T10:02:52.262Z,841.73
2022-08-20T10:03:52.224Z,841.89
2022-08-20T10:04:52.267Z,841.78
2022-08-20T10:05:52.223Z,841.91
2022-08-20T10:06:52.217Z,841.97
2022-08-20T10:07:52.220Z,841.90
2022-08-20T10:08:52.218Z,841.95
2022-08-20T10:09:52.176Z,842.09
2022-08-20T10:10:52.187Z,842.00
2022-08-20T10:11:52.146Z,841.86
2022-08-20T10:12:54.904Z,841.88
2022-08-20T10:13:52.135Z,841.85
2022-08-20T10:14:52.135Z,842.04
2022-08-20T10:15:52.115Z,842.23
2022-08-20T10:16:52.115Z,842.59
2022-08-20T10:17:52.165Z,842.87
2022-08-20T10:18:52.087Z,842.99
2022-08-20T10:19:52.063Z,842.92
2022-08-20T10:20:52.067Z,842.96
2022-08-20T10:21:52.047Z,842.71
2022-08-20T10:22:52.039Z,842.73
2022-08-20T10:23:52.007Z,842.50
2022-08-20T10:24:52.027Z,842.80
2022-08-20T10:25:52.009Z,843.06
2022-08-20T10:26:51.994Z,843.38
2022-08-20T10:27:52.020Z,843.19
2022-08-20T10:28:51.981Z,843.25
2022-08-20T10:29:51.967Z,843.36
2022-08-20T10:30:51.940Z,843.22
2022-08-20T10:31:51.941Z,843.26
2022-08-20T10:32:51.933Z,843.48
2022-08-20T10:33:51.903Z,843.58
2022-08-20T10:34:51.911Z,843.69
2022-08-20T10:35:52.011Z,843.86
2022-08-20T10:36:51.880Z,843.98
2022-08-20T10:37:52.005Z,844.10
2022-08-20T10:38:51.863Z,843.66
2022-08-20T10:39:51.862Z,843.49
2022-08-20T10:40:52.608Z,843.90
2022-08-20T10:41:51.827Z,843.91
2022-08-20T10:42:51.803Z,844.25
2022-08-20T10:43:51.804Z,844.33
2022-08-20T10:44:52.055Z,844.67
2022-08-20T10:45:51.786Z,844.40
2022-08-20T10:46:51.785Z,844.40
2022-08-20T10:47:52.845Z,844.54
2022-08-20T10:48:51.744Z,844.41
2022-08-20T10:49:51.736Z,844.44
2022-08-20T10:50:51.764Z,844.26
2022-08-20T10:51:51.716Z,844.05
2022-08-20T10:52:51.689Z,843.92
2022-08-20T10:53:51.699Z,843.98
2022-08-20T10:54:51.676Z,843.83
2022-08-20T10:55:51.695Z,843.90
2022-08-20T10:56:51.648Z,844.00
2022-08-20T10:57:51.737Z,843.95
2022-08-20T10:58:51.647Z,844.03
2022-08-20T10:59:51.628Z,844.05
2022-08-20T11:00:51.660Z,844.13
2022-08-20T11:01:51.657Z,844.08
2022-08-20T11:02:51.581Z,844.36
2022-08-20T11:03:51.588Z,844.08
2022-08-20T11:04:51.569Z,844.13
2022-08-20T11:05:51.568Z,844.03
2022-08-20T11:06:51.629Z,844.07
2022-08-20T11:07:56.127Z,844.22
2022-08-20T11:08:52.548Z,844.38
2022-08-20T11:09:51.518Z,844.30
2022-08-20T11:10:51.500Z,844.46
2022-08-20T11:11:51.496Z,844.32
2022-08-20T11:12:51.493Z,844.31
2022-08-20T11:13:51.473Z,844.38
2022-08-20T11:14:51.444Z,844.21
2022-08-20T11:15:51.464Z,844.35
2022-08-20T11:16:51.474Z,844.13
2022-08-20T11:17:51.472Z,844.23
2022-08-20T11:18:51.404Z,843.75
2022-08-20T11:19:51.404Z,843.95
2022-08-20T11:20:51.404Z,843.66
2022-08-20T11:21:51.384Z,843.52
2022-08-20T11:22:51.375Z,843.59
2022-08-20T11:23:51.356Z,843.38
2022-08-20T11:24:51.344Z,843.36
2022-08-20T11:25:51.333Z,843.63
2022-08-20T11:26:51.332Z,843.59
2022-08-20T11:27:51.416Z,843.66
2022-08-20T11:28:51.299Z,843.87
2022-08-20T11:29:51.289Z,844.07
2022-08-20T11:30:51.284Z,844.12
2022-08-20T11:31:51.265Z,843.89
2022-08-20T11:32:51.262Z,844.55
2022-08-20T11:33:51.268Z,844.88
2022-08-20T11:34:51.232Z,844.88
2022-08-20T11:35:51.229Z,844.81
2022-08-20T11:36:51.205Z,844.76
2022-08-20T11:37:51.205Z,844.63
2022-08-20T11:38:51.196Z,844.60
2022-08-20T11:39:51.224Z,844.94
2022-08-20T11:40:51.159Z,845.44
2022-08-20T11:41:55.272Z,845.15
2022-08-20T11:43:13.258Z,845.15
2022-08-20T11:44:17.399Z,845.44
2022-08-20T11:44:52.121Z,845.52
2022-08-20T11:45:51.123Z,845.65
2022-08-20T11:46:51.100Z,845.84
2022-08-20T11:47:51.089Z,846.01
2022-08-20T11:48:51.081Z,845.94
2022-08-20T11:49:51.073Z,845.97
2022-08-20T11:50:51.054Z,846.10
2022-08-20T11:51:51.042Z,845.77
2022-08-20T11:52:51.021Z,845.65
2022-08-20T11:53:51.062Z,845.19
2022-08-20T11:54:55.032Z,845.27
2022-08-20T11:55:51.021Z,845.24
2022-08-20T11:56:50.989Z,845.40
2022-08-20T11:57:51.085Z,845.41
2022-08-20T11:58:50.961Z,845.31
2022-08-20T11:59:50.961Z,845.45
2022-08-20T12:00:50.938Z,845.65
2022-08-20T12:02:03.259Z,845.83
2022-08-20T12:02:52.030Z,845.65
2022-08-20T12:03:50.925Z,845.52
2022-08-20T12:04:50.893Z,845.77
2022-08-20T12:05:50.893Z,845.64
2022-08-20T12:06:50.874Z,845.68
2022-08-20T12:07:50.866Z,845.79
2022-08-20T12:08:50.866Z,845.87
2022-08-20T12:09:51.216Z,845.69
2022-08-20T12:10:50.818Z,845.42
2022-08-20T12:11:50.837Z,845.22
2022-08-20T12:12:50.809Z,845.15
2022-08-20T12:13:50.829Z,845.01
2022-08-20T12:14:50.777Z,844.99
2022-08-20T12:15:50.790Z,845.03
2022-08-20T12:16:50.772Z,844.96
2022-08-20T12:17:50.779Z,844.77
2022-08-20T12:18:50.770Z,844.62
2022-08-20T12:19:50.738Z,844.49
2022-08-20T12:20:50.896Z,844.52
2022-08-20T12:21:50.757Z,844.50
2022-08-20T12:22:50.826Z,844.34
2022-08-20T12:23:50.709Z,844.35
2022-08-20T12:24:50.677Z,843.97
2022-08-20T12:25:50.670Z,843.84
2022-08-20T12:26:50.655Z,843.75
2022-08-20T12:27:50.649Z,843.49
2022-08-20T12:28:50.637Z,843.83